Time;durP1;ratioP1;P1;durP2;ratioP2;P2;SDS_P1;SDS_P2;PMS_P1;PMS_P2;Temp;Humidity;BMP_temperature;BMP_pressure;BME280_temperature;BME280_humidity;BME280_pressure;Samples;Min_cycle;Max_cycle;Signal;HPM_P1;HPM_P2
2022/11/04 00:01:15;;;;;;;8.13;1.83;;;;;;;;;;5007814;28;20435;-47
2022/11/04 00:03:41;;;;;;;1.80;1.70;;;;;;;;;;5005903;28;20500;-47
2022/11/04 00:06:07;;;;;;;2.33;2.00;;;;;;;;;;5007317;28;20411;-47
2022/11/04 00:08:33;;;;;;;1.93;1.83;;;;;;;;;;5004518;28;20825;-48
2022/11/04 00:13:45;;;;;;;2.80;2.33;;;;;;;;;;5005916;28;20911;-47
2022/11/04 00:18:55;;;;;;;2.30;2.10;;;;;;;;;;4997602;28;20836;-47
2022/11/04 00:29:37;;;;;;;2.40;2.20;;;;;;;;;;4999508;28;20431;-47
2022/11/04 00:35:01;;;;;;;2.50;2.30;;;;;;;;;;4985770;28;20821;-48
2022/11/04 00:37:27;;;;;;;2.70;2.27;;;;;;;;;;5003346;28;20416;-47
2022/11/04 00:39:53;;;;;;;1.90;1.80;;;;;;;;;;5005520;28;21014;-47
2022/11/04 00:42:18;;;;;;;2.23;2.00;;;;;;;;;;5003846;28;20435;-47
2022/11/04 00:44:44;;;;;;;4.03;2.60;;;;;;;;;;5003869;28;20774;-47
2022/11/04 00:47:10;;;;;;;3.23;1.80;;;;;;;;;;5004302;28;20899;-48
2022/11/04 00:49:36;;;;;;;1.83;1.73;;;;;;;;;;5009032;28;20407;-46
2022/11/04 00:52:02;;;;;;;3.67;2.10;;;;;;;;;;5003187;28;20439;-47
2022/11/04 00:54:28;;;;;;;2.07;1.97;;;;;;;;;;5001463;28;20467;-46
2022/11/04 00:56:55;;;;;;;3.77;1.87;;;;;;;;;;5004730;28;20420;-47
2022/11/04 00:59:21;;;;;;;4.80;2.33;;;;;;;;;;5004410;28;20409;-46
2022/11/04 01:01:47;;;;;;;2.23;1.70;;;;;;;;;;5006382;28;20952;-47
2022/11/04 01:04:13;;;;;;;2.30;2.10;;;;;;;;;;5010602;28;20412;-46
2022/11/04 01:06:39;;;;;;;1.80;1.70;;;;;;;;;;5010982;28;20466;-47
2022/11/04 01:09:07;;;;;;;2.30;2.10;;;;;;;;;;5004535;28;20422;-47
2022/11/04 01:11:33;;;;;;;2.13;2.03;;;;;;;;;;5006913;28;20905;-45
2022/11/04 01:13:59;;;;;;;2.30;2.10;;;;;;;;;;5009782;28;20423;-45
2022/11/04 01:16:26;;;;;;;2.00;1.87;;;;;;;;;;5007028;28;20415;-48
2022/11/04 01:18:52;;;;;;;4.27;2.00;;;;;;;;;;5008634;28;20423;-47
2022/11/04 01:21:18;;;;;;;2.00;1.90;;;;;;;;;;5005848;28;20499;-48
2022/11/04 01:23:44;;;;;;;2.73;2.53;;;;;;;;;;5007107;28;20474;-47
2022/11/04 01:26:15;;;;;;;3.10;2.90;;;;;;;;;;5004453;28;20417;-46
2022/11/04 01:28:41;;;;;;;3.20;2.30;;;;;;;;;;5008536;28;20419;-48
2022/11/04 01:31:11;;;;;;;2.33;2.20;;;;;;;;;;5009349;28;20505;-47
2022/11/04 01:33:37;;;;;;;2.90;2.70;;;;;;;;;;5006866;28;20788;-47
2022/11/04 01:36:04;;;;;;;2.80;2.60;;;;;;;;;;5008384;28;20407;-47
2022/11/04 01:38:30;;;;;;;3.67;3.07;;;;;;;;;;5007693;28;20487;-48
2022/11/04 01:40:56;;;;;;;2.67;2.50;;;;;;;;;;5007660;28;20487;-45
2022/11/04 01:43:22;;;;;;;3.10;2.40;;;;;;;;;;5007963;28;20466;-48
2022/11/04 01:45:50;;;;;;;2.70;2.50;;;;;;;;;;5012376;28;20442;-46
2022/11/04 01:48:20;;;;;;;6.07;2.33;;;;;;;;;;5007939;28;20470;-45
2022/11/04 01:50:47;;;;;;;2.97;2.77;;;;;;;;;;5003335;28;20428;-47
2022/11/04 01:53:19;;;;;;;3.47;3.10;;;;;;;;;;5005408;28;20479;-45
2022/11/04 01:55:56;;;;;;;3.17;2.87;;;;;;;;;;5011608;28;20464;-46
2022/11/04 01:58:31;;;;;;;4.20;2.80;;;;;;;;;;5006461;28;20407;-46
2022/11/04 02:00:58;;;;;;;3.93;3.63;;;;;;;;;;4997658;28;20419;-46
2022/11/04 02:03:34;;;;;;;4.80;3.73;;;;;;;;;;4999960;28;20420;-47
2022/11/04 02:06:01;;;;;;;3.30;3.00;;;;;;;;;;5009487;28;20445;-47
2022/11/04 02:08:28;;;;;;;5.87;3.50;;;;;;;;;;5010147;28;20498;-47
2022/11/04 02:10:57;;;;;;;4.20;3.77;;;;;;;;;;5022614;28;20442;-47
2022/11/04 02:13:23;;;;;;;6.00;4.10;;;;;;;;;;5011023;28;20447;-45
2022/11/04 02:15:55;;;;;;;4.80;3.67;;;;;;;;;;5004953;28;20416;-48
2022/11/04 02:18:21;;;;;;;5.20;3.37;;;;;;;;;;5004531;28;20940;-46
2022/11/04 02:20:59;;;;;;;5.20;3.13;;;;;;;;;;5005403;28;20431;-48
2022/11/04 02:23:25;;;;;;;4.03;3.63;;;;;;;;;;5005299;28;20979;-48
2022/11/04 02:26:10;;;;;;;4.10;3.70;;;;;;;;;;5008914;28;20403;-48
2022/11/04 02:28:51;;;;;;;6.40;3.50;;;;;;;;;;5003958;28;20434;-48
2022/11/04 02:31:20;;;;;;;7.90;3.30;;;;;;;;;;5005763;28;20436;-48
2022/11/04 02:33:46;;;;;;;6.87;3.60;;;;;;;;;;5006384;28;20522;-48
2022/11/04 02:36:31;;;;;;;4.37;3.97;;;;;;;;;;5018158;28;20611;-47
2022/11/04 02:38:59;;;;;;;3.67;3.23;;;;;;;;;;4998170;28;20416;-47
2022/11/04 02:41:34;;;;;;;3.60;3.30;;;;;;;;;;5008010;28;20447;-47
2022/11/04 02:44:00;;;;;;;3.90;3.40;;;;;;;;;;4996253;28;20426;-48
2022/11/04 02:46:34;;;;;;;8.60;3.60;;;;;;;;;;5001526;28;20997;-46
2022/11/04 02:49:11;;;;;;;3.70;3.40;;;;;;;;;;4996267;28;20486;-47
2022/11/04 02:51:43;;;;;;;4.13;3.53;;;;;;;;;;5004489;28;20933;-47
2022/11/04 02:54:25;;;;;;;5.13;3.77;;;;;;;;;;5007049;28;20436;-49
2022/11/04 02:56:52;;;;;;;3.43;3.13;;;;;;;;;;5005984;28;20422;-47
2022/11/04 02:59:20;;;;;;;4.23;3.30;;;;;;;;;;5004629;28;20523;-48
2022/11/04 03:01:47;;;;;;;3.53;3.23;;;;;;;;;;5005231;28;20500;-47
2022/11/04 03:04:18;;;;;;;3.97;3.53;;;;;;;;;;5000667;28;20514;-47
2022/11/04 03:06:46;;;;;;;4.20;3.00;;;;;;;;;;5004001;28;20466;-48
2022/11/04 03:09:14;;;;;;;11.27;4.50;;;;;;;;;;5003624;28;20423;-48
2022/11/04 03:11:42;;;;;;;7.00;3.97;;;;;;;;;;5003890;28;20428;-47
2022/11/04 03:14:12;;;;;;;4.27;3.87;;;;;;;;;;5006545;28;20865;-47
2022/11/04 03:16:40;;;;;;;4.33;3.90;;;;;;;;;;5008136;28;20396;-47
2022/11/04 03:19:26;;;;;;;5.03;3.97;;;;;;;;;;5006369;28;20435;-46
2022/11/04 03:22:00;;;;;;;5.43;3.50;;;;;;;;;;5009080;28;20443;-46
2022/11/04 03:24:26;;;;;;;3.87;3.57;;;;;;;;;;5007766;28;20412;-48
2022/11/04 03:26:58;;;;;;;4.37;3.40;;;;;;;;;;5010718;28;20467;-49
2022/11/04 03:29:30;;;;;;;8.47;3.00;;;;;;;;;;5008051;28;20418;-46
2022/11/04 03:31:56;;;;;;;4.93;3.80;;;;;;;;;;4993113;28;20792;-48
2022/11/04 03:34:22;;;;;;;5.23;3.03;;;;;;;;;;5007692;28;20908;-49
2022/11/04 03:36:48;;;;;;;8.40;3.13;;;;;;;;;;5006186;28;20427;-47
2022/11/04 03:39:14;;;;;;;5.27;2.80;;;;;;;;;;5006701;28;20443;-49
2022/11/04 03:41:43;;;;;;;5.50;2.50;;;;;;;;;;5006788;28;20435;-48
2022/11/04 03:44:10;;;;;;;3.90;2.47;;;;;;;;;;5006259;28;21041;-46
2022/11/04 03:46:36;;;;;;;6.97;2.73;;;;;;;;;;5006674;28;20461;-48
2022/11/04 03:49:02;;;;;;;3.60;2.60;;;;;;;;;;5002682;28;20925;-46
2022/11/04 03:51:28;;;;;;;8.67;3.00;;;;;;;;;;5007468;28;20431;-46
2022/11/04 03:53:54;;;;;;;6.27;2.53;;;;;;;;;;4997978;28;20415;-47
2022/11/04 03:56:27;;;;;;;2.83;2.57;;;;;;;;;;5001855;28;20539;-46
2022/11/04 03:59:03;;;;;;;4.40;2.93;;;;;;;;;;5002295;28;20421;-46
2022/11/04 04:01:48;;;;;;;3.53;2.50;;;;;;;;;;5001009;28;20436;-46
2022/11/04 04:04:26;;;;;;;4.97;2.30;;;;;;;;;;4995320;28;20410;-47
2022/11/04 04:06:54;;;;;;;6.30;2.57;;;;;;;;;;5004213;28;20454;-47
2022/11/04 04:09:24;;;;;;;2.57;2.37;;;;;;;;;;5001601;28;20852;-47
2022/11/04 04:11:57;;;;;;;7.93;2.63;;;;;;;;;;5003363;28;20522;-48
2022/11/04 04:14:39;;;;;;;3.17;2.50;;;;;;;;;;5001206;28;20768;-48
2022/11/04 04:17:28;;;;;;;7.50;2.60;;;;;;;;;;4995744;28;20561;-47
2022/11/04 04:19:58;;;;;;;8.73;3.20;;;;;;;;;;5007874;28;20412;-46
2022/11/04 04:22:27;;;;;;;13.97;3.17;;;;;;;;;;5005653;28;20517;-47
2022/11/04 04:27:39;;;;;;;6.53;3.17;;;;;;;;;;4999328;28;20478;-46
2022/11/04 04:30:07;;;;;;;4.47;2.53;;;;;;;;;;5006698;28;20417;-48
2022/11/04 04:32:38;;;;;;;6.43;2.33;;;;;;;;;;5003053;28;20411;-48
2022/11/04 04:37:49;;;;;;;5.57;2.60;;;;;;;;;;5008576;28;20486;-47
2022/11/04 04:45:50;;;;;;;11.60;3.87;;;;;;;;;;5010158;28;20799;-45
2022/11/04 04:48:16;;;;;;;4.93;2.57;;;;;;;;;;5005253;28;20475;-45
2022/11/04 04:50:47;;;;;;;6.10;2.80;;;;;;;;;;5004870;28;20433;-45
2022/11/04 04:53:13;;;;;;;7.65;2.95;;;;;;;;;;5003355;28;20417;-45
2022/11/04 04:55:39;;;;;;;6.70;3.00;;;;;;;;;;4999789;28;20204;-45
2022/11/04 04:58:05;;;;;;;8.43;2.83;;;;;;;;;;5006765;28;20484;-44
2022/11/04 05:00:32;;;;;;;4.67;2.27;;;;;;;;;;5004200;28;20789;-45
2022/11/04 05:02:58;;;;;;;7.27;2.37;;;;;;;;;;5006973;28;20403;-45
2022/11/04 05:05:24;;;;;;;4.20;2.60;;;;;;;;;;5003409;28;20408;-45
2022/11/04 05:07:50;;;;;;;6.00;4.30;;;;;;;;;;5005782;28;20466;-45
2022/11/04 05:10:16;;;;;;;4.90;2.27;;;;;;;;;;5001758;28;20467;-45
2022/11/04 05:15:28;;;;;;;3.90;2.40;;;;;;;;;;5008889;28;20785;-45
2022/11/04 05:17:54;;;;;;;6.40;2.27;;;;;;;;;;4999201;28;20494;-45
2022/11/04 05:20:20;;;;;;;10.63;2.87;;;;;;;;;;5002590;28;20856;-45
2022/11/04 05:22:46;;;;;;;12.03;2.73;;;;;;;;;;5003850;28;20901;-45
2022/11/04 05:25:12;;;;;;;8.40;2.60;;;;;;;;;;5002406;28;20422;-45
2022/11/04 05:27:38;;;;;;;7.67;2.40;;;;;;;;;;5003628;28;20468;-45
2022/11/04 05:30:05;;;;;;;5.90;2.60;;;;;;;;;;5007257;28;20419;-45
2022/11/04 05:32:31;;;;;;;6.43;2.17;;;;;;;;;;5007150;28;20419;-45
2022/11/04 05:34:57;;;;;;;3.37;2.23;;;;;;;;;;5000496;28;20481;-45
2022/11/04 05:37:23;;;;;;;6.97;2.17;;;;;;;;;;5000368;28;20419;-45
2022/11/04 05:39:49;;;;;;;6.30;2.40;;;;;;;;;;5005063;28;20419;-45
2022/11/04 05:42:15;;;;;;;4.43;2.00;;;;;;;;;;5006283;28;20430;-45
2022/11/04 05:44:40;;;;;;;8.70;2.50;;;;;;;;;;5002042;28;20507;-45
2022/11/04 05:47:06;;;;;;;4.13;2.20;;;;;;;;;;5005123;28;20631;-45
2022/11/04 05:49:32;;;;;;;5.40;2.30;;;;;;;;;;5003913;28;20425;-45
2022/11/04 05:51:59;;;;;;;5.07;1.87;;;;;;;;;;4995381;28;20844;-44
2022/11/04 05:54:25;;;;;;;4.07;2.20;;;;;;;;;;5009457;28;20422;-46
2022/11/04 05:56:51;;;;;;;6.47;2.40;;;;;;;;;;5003263;28;20423;-44
2022/11/04 05:59:17;;;;;;;5.03;2.20;;;;;;;;;;5003486;28;20435;-45
2022/11/04 06:01:43;;;;;;;4.87;1.50;;;;;;;;;;5003819;28;20936;-44
2022/11/04 06:04:13;;;;;;;3.87;2.00;;;;;;;;;;5003282;28;20419;-44
2022/11/04 06:06:39;;;;;;;4.87;1.97;;;;;;;;;;5003370;28;20463;-45
2022/11/04 06:09:05;;;;;;;4.03;2.00;;;;;;;;;;5002030;28;20428;-44
2022/11/04 06:11:32;;;;;;;5.30;1.90;;;;;;;;;;5007927;28;20435;-45
2022/11/04 06:13:59;;;;;;;3.47;2.10;;;;;;;;;;5002373;28;20419;-45
2022/11/04 06:16:25;;;;;;;5.13;1.93;;;;;;;;;;4998359;28;20466;-45
2022/11/04 06:18:51;;;;;;;3.07;2.23;;;;;;;;;;5002320;28;20797;-45
2022/11/04 06:21:18;;;;;;;10.13;2.50;;;;;;;;;;5001677;28;20432;-45
2022/11/04 06:23:44;;;;;;;6.57;2.30;;;;;;;;;;5004497;28;20760;-45
2022/11/04 06:26:11;;;;;;;5.10;2.77;;;;;;;;;;5001614;28;20442;-44
2022/11/04 06:28:40;;;;;;;4.80;2.50;;;;;;;;;;5006214;28;20502;-44
2022/11/04 06:31:08;;;;;;;5.70;2.27;;;;;;;;;;5001039;28;20430;-45
2022/11/04 06:33:34;;;;;;;8.27;2.30;;;;;;;;;;4997905;28;20940;-45
2022/11/04 06:36:01;;;;;;;7.90;2.20;;;;;;;;;;5008939;28;20411;-45
2022/11/04 06:38:29;;;;;;;4.17;2.40;;;;;;;;;;5002946;28;20417;-45
2022/11/04 06:40:54;;;;;;;4.27;2.23;;;;;;;;;;5004484;28;20426;-46
2022/11/04 06:43:20;;;;;;;6.77;2.63;;;;;;;;;;5002613;28;20419;-45
2022/11/04 06:45:56;;;;;;;3.23;2.37;;;;;;;;;;5004281;28;20530;-44
2022/11/04 06:48:22;;;;;;;5.00;2.30;;;;;;;;;;5001636;28;20462;-45
2022/11/04 06:50:49;;;;;;;5.73;2.30;;;;;;;;;;5001885;28;20431;-44
2022/11/04 06:53:14;;;;;;;5.80;2.83;;;;;;;;;;5006271;28;20419;-47
2022/11/04 06:55:40;;;;;;;6.73;2.33;;;;;;;;;;4994806;28;20984;-48
2022/11/04 06:58:07;;;;;;;7.67;2.70;;;;;;;;;;5003522;28;20944;-46
2022/11/04 07:00:33;;;;;;;7.33;2.80;;;;;;;;;;5002869;28;20431;-46
2022/11/04 07:02:58;;;;;;;9.70;2.27;;;;;;;;;;5004287;28;20834;-47
2022/11/04 07:05:24;;;;;;;6.40;2.40;;;;;;;;;;5003073;28;20415;-47
2022/11/04 07:07:50;;;;;;;3.87;2.20;;;;;;;;;;5008660;28;20913;-45
2022/11/04 07:10:16;;;;;;;4.00;2.50;;;;;;;;;;5003700;28;20411;-44
2022/11/04 07:12:43;;;;;;;3.17;2.47;;;;;;;;;;5001288;28;20412;-45
2022/11/04 07:15:09;;;;;;;3.23;2.20;;;;;;;;;;5000134;28;20567;-44
2022/11/04 07:17:35;;;;;;;4.83;2.87;;;;;;;;;;5001358;28;20524;-44
2022/11/04 07:20:01;;;;;;;5.50;2.90;;;;;;;;;;5003939;28;20407;-44
2022/11/04 07:22:27;;;;;;;6.87;2.70;;;;;;;;;;5001632;28;20416;-47
2022/11/04 07:24:53;;;;;;;6.23;2.37;;;;;;;;;;4997067;28;20486;-45
2022/11/04 07:27:19;;;;;;;8.20;3.13;;;;;;;;;;4995699;28;20447;-46
2022/11/04 07:29:45;;;;;;;5.13;2.40;;;;;;;;;;5002965;28;20420;-47
2022/11/04 07:32:11;;;;;;;12.23;2.73;;;;;;;;;;4997722;28;20503;-46
2022/11/04 07:34:37;;;;;;;6.00;2.70;;;;;;;;;;4995362;28;20420;-46
2022/11/04 07:37:03;;;;;;;3.00;2.30;;;;;;;;;;5005880;28;20451;-47
2022/11/04 07:39:29;;;;;;;5.30;2.43;;;;;;;;;;5002301;28;20419;-48
2022/11/04 07:41:55;;;;;;;7.00;2.13;;;;;;;;;;5004918;28;20439;-46
2022/11/04 07:44:22;;;;;;;9.40;2.77;;;;;;;;;;5002856;28;20438;-48
2022/11/04 07:46:48;;;;;;;10.47;3.00;;;;;;;;;;5003786;28;20513;-45
2022/11/04 07:49:15;;;;;;;4.57;2.20;;;;;;;;;;4996634;28;20413;-46
2022/11/04 07:51:41;;;;;;;7.80;2.70;;;;;;;;;;5002302;28;20956;-46
2022/11/04 07:54:07;;;;;;;6.30;2.70;;;;;;;;;;5004262;28;20411;-46
2022/11/04 07:56:33;;;;;;;7.70;2.73;;;;;;;;;;5002474;28;20782;-46
2022/11/04 07:58:59;;;;;;;6.90;2.50;;;;;;;;;;5003255;28;20409;-47
2022/11/04 08:01:25;;;;;;;3.60;2.30;;;;;;;;;;5001402;28;20462;-46
2022/11/04 08:03:51;;;;;;;3.60;2.37;;;;;;;;;;5003365;28;20409;-46
2022/11/04 08:06:19;;;;;;;7.03;2.40;;;;;;;;;;5006693;28;20510;-46
2022/11/04 08:08:46;;;;;;;3.00;2.20;;;;;;;;;;5001850;28;20407;-47
2022/11/04 08:11:14;;;;;;;5.73;2.40;;;;;;;;;;5000691;28;20435;-48
2022/11/04 08:13:40;;;;;;;5.57;2.47;;;;;;;;;;5002168;28;20418;-46
2022/11/04 08:16:08;;;;;;;4.13;2.80;;;;;;;;;;5005820;28;20407;-45
2022/11/04 08:18:35;;;;;;;5.97;2.50;;;;;;;;;;5003624;28;20408;-47
2022/11/04 08:21:01;;;;;;;6.67;2.60;;;;;;;;;;5002887;28;20432;-46
2022/11/04 08:23:27;;;;;;;3.63;2.33;;;;;;;;;;4990417;28;20405;-46
2022/11/04 08:25:53;;;;;;;5.13;2.53;;;;;;;;;;4992472;28;20881;-47
2022/11/04 08:28:20;;;;;;;4.80;2.30;;;;;;;;;;4987067;28;20510;-44
2022/11/04 08:30:56;;;;;;;4.47;2.37;;;;;;;;;;4999545;28;20479;-45
2022/11/04 08:33:23;;;;;;;9.50;2.70;;;;;;;;;;5001143;28;21032;-44
2022/11/04 08:35:49;;;;;;;4.90;2.50;;;;;;;;;;5002533;28;20902;-45
2022/11/04 08:38:16;;;;;;;7.50;2.20;;;;;;;;;;5007152;28;20432;-47
2022/11/04 08:40:42;;;;;;;3.00;2.40;;;;;;;;;;5005092;28;20451;-46
2022/11/04 08:43:08;;;;;;;3.47;2.40;;;;;;;;;;5000409;28;20410;-47
2022/11/04 08:45:38;;;;;;;6.53;2.10;;;;;;;;;;5006150;28;20485;-46
2022/11/04 08:48:04;;;;;;;5.47;3.13;;;;;;;;;;4994106;28;20917;-45
2022/11/04 08:50:30;;;;;;;2.73;2.10;;;;;;;;;;4991175;28;20818;-45
2022/11/04 08:52:57;;;;;;;15.27;4.70;;;;;;;;;;4992817;28;20499;-45
2022/11/04 08:55:23;;;;;;;4.87;2.03;;;;;;;;;;4999877;28;20417;-45
2022/11/04 08:57:49;;;;;;;9.23;2.40;;;;;;;;;;4991516;28;20470;-45
2022/11/04 09:00:16;;;;;;;3.03;2.30;;;;;;;;;;4997364;28;21043;-44
2022/11/04 09:02:42;;;;;;;4.33;2.17;;;;;;;;;;4998962;28;20512;-45
2022/11/04 09:05:08;;;;;;;8.73;2.60;;;;;;;;;;4999775;28;20509;-45
2022/11/04 09:07:36;;;;;;;3.50;2.40;;;;;;;;;;4996248;28;20465;-44
2022/11/04 09:10:02;;;;;;;4.20;2.03;;;;;;;;;;4998104;28;20428;-45
2022/11/04 09:12:28;;;;;;;6.47;2.10;;;;;;;;;;4997315;28;20475;-44
2022/11/04 09:14:54;;;;;;;6.30;1.77;;;;;;;;;;5002543;28;20498;-44
2022/11/04 09:17:20;;;;;;;3.87;2.50;;;;;;;;;;5002063;28;20416;-43
2022/11/04 09:19:46;;;;;;;4.10;2.80;;;;;;;;;;5002725;28;20422;-43
2022/11/04 09:22:12;;;;;;;5.47;2.60;;;;;;;;;;4998523;28;20437;-43
2022/11/04 09:24:38;;;;;;;5.17;2.57;;;;;;;;;;4997463;28;20454;-44
2022/11/04 09:27:04;;;;;;;4.43;2.00;;;;;;;;;;5001449;28;20485;-44
2022/11/04 09:29:32;;;;;;;3.33;2.00;;;;;;;;;;5002786;28;20430;-48
2022/11/04 09:31:58;;;;;;;3.33;1.90;;;;;;;;;;5005736;28;20472;-47
2022/11/04 09:34:38;;;;;;;3.50;1.83;;;;;;;;;;5004061;28;20483;-43
2022/11/04 09:37:03;;;;;;;2.70;1.63;;;;;;;;;;5005592;28;20961;-48
2022/11/04 09:39:33;;;;;;;5.60;2.30;;;;;;;;;;5009207;28;20413;-45
2022/11/04 09:42:00;;;;;;;6.20;1.93;;;;;;;;;;5009990;28;20438;-44
2022/11/04 09:44:45;;;;;;;2.23;1.70;;;;;;;;;;5011211;28;20419;-43
2022/11/04 09:47:11;;;;;;;6.87;2.30;;;;;;;;;;5010880;28;20516;-45
2022/11/04 09:49:39;;;;;;;11.70;2.43;;;;;;;;;;4999319;28;20423;-45
2022/11/04 09:52:13;;;;;;;4.33;1.90;;;;;;;;;;5001335;28;20439;-45
2022/11/04 09:54:42;;;;;;;4.20;2.10;;;;;;;;;;5003674;28;20446;-45
2022/11/04 09:57:13;;;;;;;4.70;2.00;;;;;;;;;;5005871;28;20433;-45
2022/11/04 09:59:39;;;;;;;3.63;2.23;;;;;;;;;;5000970;28;20898;-45
2022/11/04 10:02:05;;;;;;;4.00;1.90;;;;;;;;;;5004395;28;20432;-45
2022/11/04 10:04:40;;;;;;;3.93;2.30;;;;;;;;;;5004122;28;20404;-45
2022/11/04 10:07:06;;;;;;;4.73;2.13;;;;;;;;;;4999448;28;20546;-46
2022/11/04 10:09:54;;;;;;;4.43;1.90;;;;;;;;;;4997435;28;20523;-45
2022/11/04 10:12:39;;;;;;;6.23;2.30;;;;;;;;;;4997996;28;20432;-45
2022/11/04 10:15:08;;;;;;;10.73;2.73;;;;;;;;;;4991149;28;20409;-45
2022/11/04 10:17:51;;;;;;;3.30;1.87;;;;;;;;;;4990479;28;20415;-46
2022/11/04 10:20:23;;;;;;;6.43;1.60;;;;;;;;;;4987534;28;20427;-45
2022/11/04 10:23:02;;;;;;;5.87;2.40;;;;;;;;;;5001677;28;20391;-45
2022/11/04 10:25:34;;;;;;;11.03;2.17;;;;;;;;;;4996978;28;20386;-46
2022/11/04 10:28:00;;;;;;;4.10;2.17;;;;;;;;;;4994184;28;20453;-45
2022/11/04 10:30:28;;;;;;;4.20;1.80;;;;;;;;;;5000436;28;20417;-46
2022/11/04 10:33:12;;;;;;;4.47;1.90;;;;;;;;;;4996909;28;20176;-45
2022/11/04 10:36:17;;;;;;;4.83;2.20;;;;;;;;;;4995812;28;20418;-45
2022/11/04 10:38:54;;;;;;;4.83;2.00;;;;;;;;;;4955797;28;20407;-46
2022/11/04 10:41:20;;;;;;;4.23;1.70;;;;;;;;;;4949098;28;20419;-46
2022/11/04 10:43:47;;;;;;;7.30;2.10;;;;;;;;;;4983738;28;20421;-47
2022/11/04 10:46:19;;;;;;;2.80;1.90;;;;;;;;;;5000875;28;20400;-45
2022/11/04 10:49:03;;;;;;;3.20;1.40;;;;;;;;;;4997158;28;20549;-45
2022/11/04 10:51:29;;;;;;;3.93;2.00;;;;;;;;;;5004238;28;20402;-46
2022/11/04 10:53:56;;;;;;;2.03;1.80;;;;;;;;;;4994075;28;20408;-45
2022/11/04 10:56:32;;;;;;;5.00;2.00;;;;;;;;;;5000912;28;20494;-46
2022/11/04 10:59:05;;;;;;;4.23;1.93;;;;;;;;;;4984934;28;20476;-46
2022/11/04 11:01:33;;;;;;;4.80;1.93;;;;;;;;;;4987151;28;20453;-45
2022/11/04 11:03:59;;;;;;;5.40;3.07;;;;;;;;;;4992712;28;20413;-46
2022/11/04 11:06:27;;;;;;;4.07;2.00;;;;;;;;;;4995059;28;20877;-45
2022/11/04 11:08:57;;;;;;;4.10;1.73;;;;;;;;;;5007788;28;20497;-45
2022/11/04 11:11:46;;;;;;;6.60;2.30;;;;;;;;;;4988109;28;20488;-46
2022/11/04 11:14:27;;;;;;;12.33;2.50;;;;;;;;;;4992701;28;20842;-44
2022/11/04 11:16:54;;;;;;;8.23;2.10;;;;;;;;;;4999579;28;20429;-44
2022/11/04 11:19:21;;;;;;;3.30;1.73;;;;;;;;;;5004238;28;20386;-48
2022/11/04 11:21:48;;;;;;;3.07;1.80;;;;;;;;;;5000982;28;20441;-44
2022/11/04 11:24:17;;;;;;;5.83;1.70;;;;;;;;;;4994853;28;20406;-46
2022/11/04 11:26:48;;;;;;;2.77;1.67;;;;;;;;;;5001240;28;20433;-44
2022/11/04 11:29:18;;;;;;;5.30;1.63;;;;;;;;;;4994712;28;20770;-44
2022/11/04 11:31:44;;;;;;;6.50;2.00;;;;;;;;;;5002210;28;20413;-48
2022/11/04 11:34:25;;;;;;;4.03;1.60;;;;;;;;;;5001809;28;20507;-48
2022/11/04 11:36:52;;;;;;;4.43;2.10;;;;;;;;;;5005676;28;20410;-47
2022/11/04 11:39:22;;;;;;;5.13;1.70;;;;;;;;;;5006377;28;20496;-47
2022/11/04 11:41:56;;;;;;;4.27;2.30;;;;;;;;;;5000302;28;20804;-46
2022/11/04 11:44:24;;;;;;;3.60;1.53;;;;;;;;;;4993358;28;20418;-48
2022/11/04 11:46:56;;;;;;;2.43;1.90;;;;;;;;;;4996237;28;20447;-48
2022/11/04 11:49:27;;;;;;;3.63;1.53;;;;;;;;;;4988178;28;20408;-45
2022/11/04 11:51:54;;;;;;;6.60;2.03;;;;;;;;;;4987560;28;20422;-45
2022/11/04 11:54:32;;;;;;;4.40;2.03;;;;;;;;;;4994380;28;20415;-45
2022/11/04 11:57:00;;;;;;;3.73;1.87;;;;;;;;;;4998097;28;20502;-45
2022/11/04 11:59:44;;;;;;;4.73;1.50;;;;;;;;;;4993648;28;20431;-45
2022/11/04 12:02:34;;;;;;;4.40;1.90;;;;;;;;;;4995516;28;20497;-45
2022/11/04 12:05:01;;;;;;;7.10;2.07;;;;;;;;;;4994447;28;20430;-45
2022/11/04 12:07:44;;;;;;;6.30;1.70;;;;;;;;;;5003923;28;20465;-45
2022/11/04 12:10:10;;;;;;;6.07;2.43;;;;;;;;;;4990056;28;20783;-46
2022/11/04 12:12:45;;;;;;;7.10;2.00;;;;;;;;;;5000392;28;20418;-45
2022/11/04 12:15:14;;;;;;;7.70;2.20;;;;;;;;;;4992964;28;20427;-49
2022/11/04 12:17:46;;;;;;;4.40;2.03;;;;;;;;;;4999809;28;20423;-45
2022/11/04 12:20:21;;;;;;;2.43;1.90;;;;;;;;;;4991694;28;20510;-45
2022/11/04 12:22:54;;;;;;;6.93;1.63;;;;;;;;;;5002225;28;20423;-45
2022/11/04 12:25:23;;;;;;;5.40;1.60;;;;;;;;;;4995428;28;20439;-45
2022/11/04 12:28:08;;;;;;;4.77;1.80;;;;;;;;;;5000486;28;20473;-45
2022/11/04 12:30:37;;;;;;;6.07;2.00;;;;;;;;;;5000040;28;20438;-45
2022/11/04 12:33:03;;;;;;;10.63;2.43;;;;;;;;;;4994261;28;20430;-45
2022/11/04 12:35:35;;;;;;;4.53;1.97;;;;;;;;;;5005634;28;20434;-45
2022/11/04 12:38:20;;;;;;;7.60;2.63;;;;;;;;;;4990776;28;20420;-44
2022/11/04 12:40:58;;;;;;;4.30;2.60;;;;;;;;;;4994939;28;20454;-44
2022/11/04 12:43:30;;;;;;;3.20;1.80;;;;;;;;;;5001863;28;20928;-44
2022/11/04 12:45:56;;;;;;;11.27;3.00;;;;;;;;;;4997101;28;20963;-44
2022/11/04 12:48:42;;;;;;;8.27;2.10;;;;;;;;;;4998291;28;20561;-44
2022/11/04 12:51:15;;;;;;;5.57;2.10;;;;;;;;;;4992974;28;20435;-45
2022/11/04 12:53:44;;;;;;;2.57;1.70;;;;;;;;;;5000467;28;20404;-45
2022/11/04 12:56:11;;;;;;;8.70;2.83;;;;;;;;;;4993032;28;20408;-46
2022/11/04 12:58:40;;;;;;;5.20;2.37;;;;;;;;;;5001457;28;20434;-44
2022/11/04 13:01:18;;;;;;;3.30;1.97;;;;;;;;;;5006977;28;20962;-46
2022/11/04 13:03:53;;;;;;;8.80;1.97;;;;;;;;;;4998990;28;20420;-46
2022/11/04 13:06:21;;;;;;;4.60;2.10;;;;;;;;;;4993679;28;20431;-45
2022/11/04 13:08:55;;;;;;;6.53;1.90;;;;;;;;;;5005396;28;20449;-45
2022/11/04 13:11:27;;;;;;;2.63;2.00;;;;;;;;;;4999311;28;20436;-44
2022/11/04 13:13:56;;;;;;;4.37;2.10;;;;;;;;;;4993041;28;20915;-44
2022/11/04 13:16:22;;;;;;;7.17;2.40;;;;;;;;;;4994362;28;20494;-45
2022/11/04 13:18:49;;;;;;;4.17;2.03;;;;;;;;;;5005234;28;20459;-44
2022/11/04 13:21:18;;;;;;;5.33;1.90;;;;;;;;;;5002514;28;20435;-45
2022/11/04 13:23:52;;;;;;;5.50;2.20;;;;;;;;;;5003697;28;20404;-45
2022/11/04 13:26:18;;;;;;;5.93;2.07;;;;;;;;;;5002835;28;20387;-45
2022/11/04 13:28:44;;;;;;;4.10;1.90;;;;;;;;;;5008511;28;20835;-45
2022/11/04 13:31:29;;;;;;;5.00;2.40;;;;;;;;;;5000979;28;20419;-45
2022/11/04 13:34:05;;;;;;;6.83;1.93;;;;;;;;;;5005589;28;20518;-44
2022/11/04 13:36:50;;;;;;;3.80;2.50;;;;;;;;;;4998977;28;20411;-45
2022/11/04 13:39:22;;;;;;;1.97;1.70;;;;;;;;;;5006201;28;20943;-45
2022/11/04 13:41:51;;;;;;;5.90;2.20;;;;;;;;;;5000228;28;21031;-45
2022/11/04 13:44:23;;;;;;;2.00;1.90;;;;;;;;;;5004114;28;20896;-46
2022/11/04 13:46:51;;;;;;;4.90;2.00;;;;;;;;;;5004982;28;20463;-44
2022/11/04 13:49:35;;;;;;;5.63;2.07;;;;;;;;;;4997351;28;20408;-44
2022/11/04 13:52:05;;;;;;;5.20;2.30;;;;;;;;;;5001282;28;20739;-44
2022/11/04 13:54:35;;;;;;;5.57;1.90;;;;;;;;;;5012759;28;20396;-45
2022/11/04 13:57:04;;;;;;;3.50;1.83;;;;;;;;;;5002172;28;20410;-44
2022/11/04 13:59:30;;;;;;;4.90;2.17;;;;;;;;;;5005348;28;20812;-45
2022/11/04 14:02:11;;;;;;;2.90;1.80;;;;;;;;;;4999806;28;20448;-44
2022/11/04 14:04:38;;;;;;;2.50;1.97;;;;;;;;;;4998252;28;20425;-46
2022/11/04 14:07:07;;;;;;;5.33;1.90;;;;;;;;;;5005000;28;20987;-45
2022/11/04 14:09:42;;;;;;;6.83;2.70;;;;;;;;;;5002344;28;20498;-45
2022/11/04 14:12:17;;;;;;;10.77;2.83;;;;;;;;;;5004085;28;20470;-45
2022/11/04 14:14:43;;;;;;;5.57;2.10;;;;;;;;;;5003541;28;20415;-44
2022/11/04 14:17:28;;;;;;;5.17;2.03;;;;;;;;;;5004782;28;20477;-45
2022/11/04 14:19:58;;;;;;;5.00;2.60;;;;;;;;;;4992146;28;20411;-45
2022/11/04 14:22:29;;;;;;;10.93;2.40;;;;;;;;;;4993183;28;20444;-45
2022/11/04 14:24:56;;;;;;;8.97;2.80;;;;;;;;;;4998415;28;21112;-45
2022/11/04 14:27:27;;;;;;;7.23;2.60;;;;;;;;;;4994609;28;20573;-49
2022/11/04 14:29:53;;;;;;;10.63;3.50;;;;;;;;;;4998571;28;20415;-45
2022/11/04 14:32:25;;;;;;;13.93;5.20;;;;;;;;;;4993487;28;20798;-47
2022/11/04 14:35:02;;;;;;;7.80;3.43;;;;;;;;;;4994175;28;20822;-44
2022/11/04 14:37:31;;;;;;;8.73;4.83;;;;;;;;;;5002549;28;20507;-47
2022/11/04 14:39:58;;;;;;;5.00;4.00;;;;;;;;;;4993417;28;20408;-44
2022/11/04 14:42:51;;;;;;;8.03;4.60;;;;;;;;;;5006596;28;20434;-45
2022/11/04 14:45:20;;;;;;;6.70;4.00;;;;;;;;;;4999987;28;20462;-44
2022/11/04 14:47:47;;;;;;;10.83;4.33;;;;;;;;;;5002825;28;20535;-49
2022/11/04 14:50:17;;;;;;;11.20;4.20;;;;;;;;;;5001926;28;20420;-47
2022/11/04 14:52:43;;;;;;;9.27;4.20;;;;;;;;;;5008561;28;20414;-47
2022/11/04 14:55:19;;;;;;;9.43;4.00;;;;;;;;;;5003574;28;20935;-48
2022/11/04 14:57:47;;;;;;;13.90;4.43;;;;;;;;;;4999700;28;20430;-47
2022/11/04 15:00:22;;;;;;;8.30;4.17;;;;;;;;;;5000999;28;20453;-48
2022/11/04 15:02:48;;;;;;;12.13;4.70;;;;;;;;;;5011094;28;20505;-46
2022/11/04 15:05:22;;;;;;;6.43;4.03;;;;;;;;;;5004833;28;20410;-45
2022/11/04 15:07:48;;;;;;;10.50;3.60;;;;;;;;;;5007874;28;20554;-46
2022/11/04 15:10:23;;;;;;;7.47;4.20;;;;;;;;;;4999682;28;20509;-46
2022/11/04 15:12:50;;;;;;;8.67;4.10;;;;;;;;;;4993119;28;20416;-47
2022/11/04 15:15:27;;;;;;;9.13;3.87;;;;;;;;;;5000974;28;20910;-48
2022/11/04 15:18:13;;;;;;;7.10;4.20;;;;;;;;;;4996433;28;20444;-49
2022/11/04 15:20:40;;;;;;;11.63;5.30;;;;;;;;;;5003441;28;20443;-47
2022/11/04 15:23:11;;;;;;;7.20;4.47;;;;;;;;;;4995244;28;20417;-45
2022/11/04 15:25:43;;;;;;;10.13;4.97;;;;;;;;;;4997470;28;20422;-45
2022/11/04 15:28:33;;;;;;;6.50;4.60;;;;;;;;;;4986343;28;20472;-45